AirNav   TITAN Aviation Fuels
 
 517 users online  

KPJC Zelienople Municipal Airport
Zelienople, Pennsylvania, USA

GOING TO ZELIENOPLE?


FAA INFORMATION EFFECTIVE 21 APRIL 2022

Location

FAA Identifier: PJC
Lat/Long: 40-48-07.1000N 080-09-39.1000W
40-48.118333N 080-09.651667W
40.8019722,-80.1608611
(estimated)
Elevation: 897.8 ft. / 273.6 m (surveyed)
Variation: 09W (2000)
From city: 1 mile W of ZELIENOPLE, PA
Time zone: UTC -4 (UTC -5 during Standard Time)
Zip code: 16123

Airport Operations

Airport use: Open to the public
Activation date: 03/1958
Control tower: no
ARTCC: CLEVELAND CENTER
FSS: ALTOONA FLIGHT SERVICE STATION
NOTAMs facility: AOO (NOTAM-D service available)
Attendance: MON-FRI 0600-2200, ALL SAT-SUN ON CALL
FOR ATTENDANT SAT-SUN CALL 724-452-4719.
Wind indicator: lighted
Segmented circle: no
Lights: ACTVT REIL RWY 17 & 35; MIRL RWY 17/35 AFT 2200 - CTAF. PAPI CONS & MIRL OPER DUSK-2200.
Beacon: white-green (lighted land airport)
Operates sunset to sunrise.

Airport Communications

CTAF: 122.9
WX AWOS-3PT: 118.45 (724-452-5304)
PITTSBURGH APPROACH: 124.75
PITTSBURGH DEPARTURE: 124.75
WX AWOS-3PT at BTP (10 nm E): 121.450 (724-586-6434)
WX AWOS-3PT at BVI (11 nm W): 118.35 (724-843-1024)
WX AWOS-3PT at UCP (18 nm NW): 124.175 ((724) 652-4184)
WX ASOS at PIT (19 nm S): PHONE 412-472-0145

Nearby radio navigation aids

VOR radial/distance  VOR name  Freq  Var
EWCr129/2.7ELLWOOD CITY VOR/DME115.8008W
AGCr359/31.9ALLEGHENY VOR/DME110.0009W
HLGr037/37.5WHEELING VOR/DME112.2007W
YNGr149/39.3YOUNGSTOWN VORTAC109.0005W

 
NDB name  Hdg/Dist  Freq  Var  ID
CASTLE148/17.627209WUCP ..- -.-. .--.

Airport Services

Fuel available: 100LL JET-A JET-A+
Parking: hangars and tiedowns
Airframe service: MAJOR
Powerplant service: MAJOR
Bottled oxygen: HIGH
Bulk oxygen: LOW

Runway Information

Runway 17/35

Dimensions: 4933 x 75 ft. / 1504 x 23 m
Surface: asphalt, in good condition
Runway edge lights: medium intensity
RUNWAY 17  RUNWAY 35
Latitude: 40-48.511208N40-47.725148N
Longitude: 080-09.786162W080-09.516012W
Elevation: 889.9 ft.896.2 ft.
Traffic pattern: leftleft
Runway heading: 174 magnetic, 165 true354 magnetic, 345 true
Displaced threshold: 551 ft.282 ft.
Declared distances: TORA:4932 TODA:4932 ASDA:4932 LDA:4381TORA:4932 TODA:4932 ASDA:4932 LDA:4650
Markings: nonprecision, in fair conditionnonprecision, in good condition
Visual slope indicator: 2-light PAPI on left (3.48 degrees glide path)
PAPI UNUSBL BYD 5 DEG L OF CNTRLN.
Runway end identifier lights: yesyes
Touchdown point: yes, no lightsyes, no lights
Obstructions: 186 ft. trees, 3399 ft. from runway, 297 ft. left of centerline, 17:1 slope to clear
RWY 17 186 FT TREES 3399 FT FROM THLD 297 FT L. 17:1 TO DTHR.
56 ft. pole, lighted, 480 ft. from runway, 267 ft. left of centerline, 5:1 slope to clear
NON-STD LGTG; UTILITY POLE LIT FROM THE BOTTOM.

Airport Ownership and Management from official FAA records

Ownership: Publicly-owned
Owner: ARPT AUTH BORO ZELIENOPLE
100 TASA DRIVE
ZELIENOPLE, PA 16063
Phone 724-452-1290
Manager: DAVE HOLMAN
220 TASA DRIVE
ZELIENOPLE, PA 16063
Phone 724-452-4719

Airport Operational Statistics

Aircraft based on the field: 53
Single engine airplanes: 41
Multi engine airplanes: 3
Jet airplanes: 3
Helicopters: 6
    
Aircraft operations: avg 115/day *
79% local general aviation
15% transient general aviation
5% air taxi
<1% military
* for 12-month period ending 13 October 2020

Additional Remarks

DEER & GEESE ON & INVOF RWY.
PARALLEL TXY MKD WITH REFLECTORS.
FOR CD CTC PITTSBURGH APCH AT 412-472-5591.
RWY 35 68 FT LGT POLE 720 FT FM THLD, 291 FT RT. 56 FT LGT POLE 480 FT FM THLD, 267 FT LT. POLES LGT FM THE BOTTOM.

Instrument Procedures

NOTE: All procedures below are presented as PDF files. If you need a reader for these files, you should download the free Adobe Reader.

NOT FOR NAVIGATION. Please procure official charts for flight.
FAA instrument procedures published for use from 21 April 2022 at 0901Z to 19 May 2022 at 0900z.

 
IAPs - Instrument Approach Procedures
RNAV (GPS) RWY 17   download (184KB)
RNAV (GPS) RWY 35   download (198KB)
NOTE: Special Take-Off Minimums/Departure Procedures apply   download (149KB)

Other nearby airports with instrument procedures:

KBTP - Pittsburgh/Butler Regional Airport (10 nm E)
KBVI - Beaver County Airport (11 nm W)
KUCP - New Castle Municipal Airport (18 nm NW)
KPIT - Pittsburgh International Airport (19 nm S)
29D - Grove City Airport (21 nm N)
 
Loc | Ops | Rwys | IFR | FBO | Links
Com | Nav | Svcs | Stats | Notes
Area around KPJC (Zelienople Municipal Airport)
 
Road maps at: MapQuest Bing Google
 
Aerial photo
WARNING: Photo may not be current or correct
Aerial photo of KPJC (Zelienople Municipal Airport)
Photo taken 22-Jun-2015
looking north.

Do you have a better or more recent aerial photo of Zelienople Municipal Airport that you would like to share? If so, please send us your photo.

 
Sectional chart

 
Airport distance calculator
Flying to Zelienople Municipal Airport? Find the distance to fly.

From to KPJC

Sunrise and sunset
Times for 16-May-2022
 Local
(UTC-4)
 Zulu
(UTC)
Morning civil twilight05:3209:32
Sunrise06:0310:03
Sunset20:3100:31
Evening civil twilight21:0201:02

Current date and time
Zulu (UTC)  16-May-2022 06:42:21
Local (UTC-4)  16-May-2022 02:42:21
 
METAR
KPJC 160615Z AUTO 00000KT 10SM CLR 13/13 A2974 RMK AO2
KBTP 
10nm E 
160556Z AUTO 15003KT 10SM CLR 16/13 A2976 RMK AO2 SLP075 T01560133 10250 20150 58023 TSNO
KBVI 
11nm W 
160615Z AUTO 16003KT 10SM CLR 19/13 A2975 RMK AO2 T01900125
KUCP 
18nm NW 
160556Z AUTO 00000KT 10SM CLR 14/13 A2975 RMK AO2 SLP082 T01440133 10250 20139 58022
KPIT 
19nm S 
160551Z 16003KT 10SM SCT250 18/14 A2975 RMK AO2 SLP072 T01780139 10256 20178 58022
TAF
KBVI 
11nm W 
160523Z 1606/1706 VRB02KT P6SM SCT250 FM161200 33007KT 4SM SHRA BR VCTS OVC030CB FM161500 32008KT 6SM -SHRA BR OVC007 FM161700 30009G18KT P6SM VCSH OVC015 FM170100 26004KT P6SM FEW200
KPIT 
19nm S 
160523Z 1606/1712 17004KT P6SM SCT250 FM161200 32008KT 5SM SHRA BR VCTS OVC030CB FM161400 32009KT 4SM SHRA BR VCTS OVC007CB FM161600 31009G18KT 6SM -SHRA VCTS OVC010CB FM161900 30012G22KT P6SM BKN035
NOTAMs
Click for the latest NOTAMs
NOTAMs are issued by the DoD/FAA and will open in a separate window not controlled by AirNav.

 

 
 

FBO, Fuel Providers, and Aircraft Ground Support

  
 Business Name 
 
 Contact 
 
 Services / Description 
 
Fuel Prices
 
Comments
  
Pittsburgh Jet Center 724-452-4719
no information available

If you are affiliated with Pittsburgh Jet Center and would like to show here your services, contact info, web link, logo, and more, click here
100LL Jet A
FS --- $5.95 
SS $6.75 --- 
 Updated 11-May-2022
 
   write
FS=Full service
SS=Self service
Update Fuel Prices
 

Would you like to see your business listed on this page?

 If your business provides an interesting product or service to pilots, flight crews, aircraft, or users of the Zelienople Municipal Airport, you should consider listing it here.  To start the listing process, click on the button below
 
Add a business
 

Other Pages about Zelienople Municipal Airport

boro.zelienople.pa.us/airport.htm
 
Update a link
 
Copyright © AirNav, LLC. All rights reserved. Privacy Policy  Contact